Map

Track Data

SID SEASON NUMBER BASIN SUBBASIN NAME ISO_TIME NATURE LAT LON WMO_WIND WMO_PRES WMO_AGENCY TRACK_TYPE DIST2LAND LANDFALL IFLAG USA_AGENCY USA_ATCF_ID USA_LAT USA_LON USA_RECORD USA_STATUS USA_WIND USA_PRES USA_SSHS USA_R34_NE USA_R34_SE USA_R34_SW USA_R34_NW USA_R50_NE USA_R50_SE USA_R50_SW USA_R50_NW USA_R64_NE USA_R64_SE USA_R64_SW USA_R64_NW USA_POCI USA_ROCI USA_RMW USA_EYE TOKYO_LAT TOKYO_LON TOKYO_GRADE TOKYO_WIND TOKYO_PRES TOKYO_R50_DIR TOKYO_R50_LONG TOKYO_R50_SHORT TOKYO_R30_DIR TOKYO_R30_LONG TOKYO_R30_SHORT TOKYO_LAND CMA_LAT CMA_LON CMA_CAT CMA_WIND CMA_PRES HKO_LAT HKO_LON HKO_CAT HKO_WIND HKO_PRES NEWDELHI_LAT NEWDELHI_LON NEWDELHI_GRADE NEWDELHI_WIND NEWDELHI_PRES NEWDELHI_CI NEWDELHI_DP NEWDELHI_POCI REUNION_LAT REUNION_LON REUNION_TYPE REUNION_WIND REUNION_PRES REUNION_TNUM REUNION_CI REUNION_RMW REUNION_R34_NE REUNION_R34_SE REUNION_R34_SW REUNION_R34_NW REUNION_R50_NE REUNION_R50_SE REUNION_R50_SW REUNION_R50_NW REUNION_R64_NE REUNION_R64_SE REUNION_R64_SW REUNION_R64_NW BOM_LAT BOM_LON BOM_TYPE BOM_WIND BOM_PRES BOM_TNUM BOM_CI BOM_RMW BOM_R34_NE BOM_R34_SE BOM_R34_SW BOM_R34_NW BOM_R50_NE BOM_R50_SE BOM_R50_SW BOM_R50_NW BOM_R64_NE BOM_R64_SE BOM_R64_SW BOM_R64_NW BOM_ROCI BOM_POCI BOM_EYE BOM_POS_METHOD BOM_PRES_METHOD NADI_LAT NADI_LON NADI_CAT NADI_WIND NADI_PRES WELLINGTON_LAT WELLINGTON_LON WELLINGTON_WIND WELLINGTON_PRES DS824_LAT DS824_LON DS824_STAGE DS824_WIND DS824_PRES TD9636_LAT TD9636_LON TD9636_STAGE TD9636_WIND TD9636_PRES TD9635_LAT TD9635_LON TD9635_WIND TD9635_PRES TD9635_ROCI NEUMANN_LAT NEUMANN_LON NEUMANN_CLASS NEUMANN_WIND NEUMANN_PRES MLC_LAT MLC_LON MLC_CLASS MLC_WIND MLC_PRES USA_GUST BOM_GUST BOM_GUST_PER REUNION_GUST REUNION_GUST_PER USA_SEAHGT USA_SEARAD_NE USA_SEARAD_SE USA_SEARAD_SW USA_SEARAD_NW STORM_SPEED STORM_DIR
1950108S10055 1950 23 SI MM NOT_NAMED 1950-04-18 06:00:00 NR -9.60000 55.1000 reunion main 683 677 _____O________ -1 -9.60000 55.1000 99 9.90000 1 204
1950108S10055 1950 23 SI MM NOT_NAMED 1950-04-18 09:00:00 NR -9.66268 55.0859 main 677 677 _____P________ -1 -9.66268 55.0859 99 1 195
1950108S10055 1950 23 SI MM NOT_NAMED 1950-04-18 12:00:00 NR -9.72654 55.0708 main 677 670 _____P________ -1 -9.72654 55.0708 99 1 198
1950108S10055 1950 23 SI MM NOT_NAMED 1950-04-18 15:00:00 NR -9.79276 55.0536 main 670 655 _____P________ -1 -9.79276 55.0536 99 1 198
1950108S10055 1950 23 SI MM NOT_NAMED 1950-04-18 18:00:00 NR -9.86249 55.0333 main 655 655 _____P________ -1 -9.86249 55.0333 99 2 193
1950108S10055 1950 23 SI MM NOT_NAMED 1950-04-18 21:00:00 NR -9.93691 55.0088 main 655 649 _____P________ -1 -9.93691 55.0088 99 2 198
1950108S10055 1950 23 SI MM NOT_NAMED 1950-04-19 00:00:00 NR -10.0172 54.9791 main 649 634 _____P________ -1 -10.0172 54.9791 99 2 202
1950108S10055 1950 23 SI MM NOT_NAMED 1950-04-19 03:00:00 NR -10.1045 54.9432 main 634 631 _____P________ -1 -10.1045 54.9432 99 2 294
1950108S10055 1950 23 SI MM NOT_NAMED 1950-04-19 06:00:00 TS -9.94286 54.8143 reunion main 637 625 O____O___OO___ jtwc_sh SH201950 -9.60000 54.7000 -1 -10.2000 54.9000 99 9.90000 -9.60000 54.7000 TC 25 -9.60000 54.7000 7 2 272
1950108S10055 1950 23 SI MM NOT_NAMED 1950-04-19 09:00:00 TS -10.0988 54.7637 main 625 604 P____P___PP___ SH201950 -9.94500 54.6875 -1 -10.3058 54.8501 99 -9.94500 54.6875 TC 25 -9.99219 54.7433 7 4 189
1950108S10055 1950 23 SI MM NOT_NAMED 1950-04-19 12:00:00 TS -10.3550 54.7493 main 598 597 O____P___OP___ jtwc_sh SH201950 -10.3000 54.7000 -1 -10.4280 54.8005 99 -10.3000 54.7000 TC 25 -10.3675 54.7794 7 6 0
1950108S10055 1950 23 SI MM NOT_NAMED 1950-04-19 15:00:00 TS -10.6532 54.7652 main 592 582 P____P___PP___ SH201950 -10.6650 54.7500 -1 -10.5736 54.7601 99 -10.6650 54.7500 TC 30 -10.7091 54.8008 7 6 176
1950108S10055 1950 23 SI MM NOT_NAMED 1950-04-19 18:00:00 TS -10.9374 54.7843 main 582 569 O____P___OO___ jtwc_sh SH201950 -11.0000 54.8000 -1 -10.7497 54.7374 99 -11.0000 54.8000 TC 35 -11.0000 54.8000 2 5 0
1950108S10055 1950 23 SI MM NOT_NAMED 1950-04-19 21:00:00 TS -11.1784 54.7796 main 569 562 P____P___PP___ SH201950 -11.2575 54.8000 -1 -10.9633 54.7412 99 -11.2575 54.8000 TC 35 -11.2355 54.7770 2 5 179
1950108S10055 1950 23 SI MM NOT_NAMED 1950-04-20 00:00:00 TS -11.4203 54.7854 main 562 552 O____P___OP___ jtwc_sh SH201950 -11.5000 54.8000 -1 -11.2214 54.7803 99 -11.5000 54.8000 TC 35 -11.4598 54.7613 2 5 176
1950108S10055 1950 23 SI MM NOT_NAMED 1950-04-20 03:00:00 TS -11.6851 54.8197 main 552 549 P____P___PP___ SH201950 -11.7400 54.8127 -1 -11.5313 54.8636 99 -11.7400 54.8127 TC 35 -11.7292 54.7899 2 6 168
1950108S10055 1950 23 SI MM NOT_NAMED 1950-04-20 06:00:00 TS -12.0500 54.9250 reunion main 554 551 O____O___OO___ jtwc_sh SH201950 -12.1000 54.9000 -1 -11.9000 55.0000 99 9.90000 -12.1000 54.9000 TC 35 -12.1000 54.9000 2 10 161
1950108S10055 1950 23 SI MM NOT_NAMED 1950-04-20 09:00:00 TS -12.6138 55.1400 main 558 558 P____P___PP___ SH201950 -12.6975 55.0976 -1 -12.3734 55.2311 99 -12.6975 55.0976 TC 35 -12.6870 55.1336 2 13 158
1950108S10055 1950 23 SI MM NOT_NAMED 1950-04-20 12:00:00 TS -13.2706 55.4426 main 569 569 O____P___OP___ jtwc_sh SH201950 -13.4000 55.4000 -1 -12.9121 55.5194 99 -13.4000 55.4000 TC 35 -13.3703 55.4510 2 15 154
1950108S10055 1950 23 SI MM NOT_NAMED 1950-04-20 15:00:00 TS -13.9354 55.8098 main 588 586 P____P___PP___ SH201950 -14.0876 55.7848 -1 -13.4980 55.8518 99 -14.0876 55.7848 TC 35 -14.0684 55.8180 2 15 150
1950108S10055 1950 23 SI MM NOT_NAMED 1950-04-20 18:00:00 TS -14.5532 56.2037 main 616 580 O____P___OO___ jtwc_sh SH201950 -14.7000 56.2000 -1 -14.1128 56.2149 99 -14.7000 56.2000 TC 35 -14.7000 56.2000 2 13 147
1950108S10055 1950 23 SI MM NOT_NAMED 1950-04-20 21:00:00 TS -15.0476 56.5666 main 578 518 P____P___PP___ SH201950 -15.1449 56.5578 -1 -14.7384 56.5952 99 -15.1449 56.5578 TC 35 -15.1621 56.5555 2 12 143
1950108S10055 1950 23 SI MM NOT_NAMED 1950-04-21 00:00:00 TS -15.4760 56.9236 main 518 470 O____P___OP___ jtwc_sh SH201950 -15.5000 56.9000 -1 -15.3567 56.9789 99 -15.5000 56.9000 TC 35 -15.5474 56.9157 2 11 141
1950108S10055 1950 23 SI MM NOT_NAMED 1950-04-21 03:00:00 TS -15.8910 57.2838 main 470 425 P____P___PP___ SH201950 -15.8650 57.2576 -1 -15.9499 57.3519 99 -15.8650 57.2576 TC 35 -15.8840 57.2679 2 11 140
1950108S10055 1950 23 SI MM NOT_NAMED 1950-04-21 06:00:00 TS -16.2750 57.6250 reunion main 425 392 O____O___OO___ jtwc_sh SH201950 -16.2000 57.6000 -1 -16.5000 57.7000 99 9.90000 -16.2000 57.6000 TC 35 -16.2000 57.6000 2 10 140
1950108S10055 1950 23 SI MM NOT_NAMED 1950-04-21 09:00:00 TS -16.6211 57.9334 main 392 360 P____P___PP___ SH201950 -16.5000 57.9152 -1 -16.9658 58.0020 99 -16.5000 57.9152 TC 35 -16.5188 57.9013 2 9 140
1950108S10055 1950 23 SI MM NOT_NAMED 1950-04-21 12:00:00 TS -16.9565 58.2174 main 350 324 O____P___OP___ jtwc_sh SH201950 -16.8000 58.2000 -1 -17.3989 58.2887 99 -16.8000 58.2000 TC 35 -16.8272 58.1810 2 9 143
1950108S10055 1950 23 SI MM NOT_NAMED 1950-04-21 15:00:00 TS -17.3045 58.4793 main 324 298 P____P___PP___ SH201950 -17.1349 58.4576 -1 -17.8011 58.5568 99 -17.1349 58.4576 TC 35 -17.1470 58.4451 2 9 146
1950108S10055 1950 23 SI MM NOT_NAMED 1950-04-21 18:00:00 TS -17.6684 58.7258 main 288 266 O____P___OO___ jtwc_sh SH201950 -17.5000 58.7000 -1 -18.1738 58.8030 99 -17.5000 58.7000 TC 35 -17.5000 58.7000 2 9 148
1950108S10055 1950 23 SI MM NOT_NAMED 1950-04-21 21:00:00 TS -18.0439 58.9689 main 271 238 P____P___PP___ SH201950 -17.8775 58.9501 -1 -18.5185 59.0239 99 -17.8775 58.9501 TC 35 -17.9021 58.9513 2 9 151
1950108S10055 1950 23 SI MM NOT_NAMED 1950-04-22 00:00:00 TS -18.4756 59.2051 main 238 222 O____P___OP___ jtwc_sh SH201950 -18.3000 59.2000 -1 -18.8368 59.2159 99 -18.3000 59.2000 TC 35 -18.3453 59.2010 2 10 154
1950108S10055 1950 23 SI MM NOT_NAMED 1950-04-22 03:00:00 TS -18.9283 59.4202 main 223 213 P____P___PP___ SH201950 -18.7826 59.4497 -1 -19.1301 59.3758 99 -18.7826 59.4497 TC 35 -18.8159 59.4503 2 10 158
1950108S10055 1950 23 SI MM NOT_NAMED 1950-04-22 06:00:00 TS -19.3571 59.5857 reunion main 213 203 O____O___OO___ jtwc_sh SH201950 -19.3000 59.7000 -1 -19.4000 59.5000 99 9.90000 -19.3000 59.7000 TC 35 -19.3000 59.7000 2 7 168
1950108S10055 1950 23 SI MM NOT_NAMED 1950-04-22 09:00:00 NR -19.6481 59.5865 main 203 193 _____P________ SH201950 -1 -19.6481 59.5865 99 TC 2 5 173
1950108S10055 1950 23 SI MM NOT_NAMED 1950-04-22 12:00:00 NR -19.8769 59.6385 main 193 193 _____P________ -1 -19.8769 59.6385 99 2 4 172
1950108S10055 1950 23 SI MM NOT_NAMED 1950-04-22 15:00:00 NR -20.0892 59.6610 main 199 198 _____P________ -1 -20.0892 59.6610 99 2 4 178
1950108S10055 1950 23 SI MM NOT_NAMED 1950-04-22 18:00:00 NR -20.2879 59.6587 main 198 187 _____P________ -1 -20.2879 59.6587 99 4 0
1950108S10055 1950 23 SI MM NOT_NAMED 1950-04-22 21:00:00 NR -20.4755 59.6366 main 188 188 _____P________ -1 -20.4755 59.6366 99 4 188
1950108S10055 1950 23 SI MM NOT_NAMED 1950-04-23 00:00:00 NR -20.6549 59.5994 main 192 192 _____P________ -1 -20.6549 59.5994 99 4 193
1950108S10055 1950 23 SI MM NOT_NAMED 1950-04-23 03:00:00 NR -20.8289 59.5523 main 195 185 _____P________ -1 -20.8289 59.5523 99 4 196
1950108S10055 1950 23 SI MM NOT_NAMED 1950-04-23 06:00:00 NR -21.0000 59.5000 reunion main 193 _____O________ -1 -21.0000 59.5000 99 9.90000 4 199

About IBTrACS Database

This database is a web-friendly format of International Best Track Archive for Climate Stewardship (IBTrACS), a global best track data archive curated by NOAA dating back to 1842.

Updated: 2021-10-25